Time;durP1;ratioP1;P1;durP2;ratioP2;P2;SDS_P1;SDS_P2;PMS_P1;PMS_P2;Temp;Humidity;BMP_temperature;BMP_pressure;BME280_temperature;BME280_humidity;BME280_pressure;Samples;Min_cycle;Max_cycle;Signal;HPM_P1;HPM_P2
2020/12/24 00:01:34;;;;;;;2.97;1.25;;;8.40;99.90;;;;;;5048825;28;20086;-68
2020/12/24 00:04:01;;;;;;;6.00;1.40;;;8.30;99.90;;;;;;5050102;28;20059;-69
2020/12/24 00:06:27;;;;;;;5.85;1.48;;;8.30;99.90;;;;;;5044260;28;20140;-68
2020/12/24 00:08:53;;;;;;;3.95;2.10;;;8.30;99.90;;;;;;5049766;28;20115;-69
2020/12/24 00:11:20;;;;;;;4.88;1.92;;;8.30;99.90;;;;;;5047388;28;20053;-69
2020/12/24 00:13:46;;;;;;;4.40;1.60;;;8.30;99.90;;;;;;5048677;28;20415;-69
2020/12/24 00:16:13;;;;;;;2.65;1.50;;;8.30;99.90;;;;;;5048028;28;20423;-69
2020/12/24 00:18:39;;;;;;;2.58;1.50;;;8.40;99.90;;;;;;5049060;28;20063;-69
2020/12/24 00:21:08;;;;;;;5.20;1.73;;;8.40;99.90;;;;;;5047275;28;20083;-69
2020/12/24 00:23:35;;;;;;;3.92;1.60;;;8.40;99.90;;;;;;5063592;28;20052;-69
2020/12/24 00:26:04;;;;;;;2.70;1.45;;;8.40;99.90;;;;;;5048165;28;20057;-69
2020/12/24 00:28:33;;;;;;;2.47;1.52;;;8.40;99.90;;;;;;5049384;28;20041;-69
2020/12/24 00:31:00;;;;;;;4.55;1.55;;;8.40;99.90;;;;;;5045535;28;20041;-69
2020/12/24 00:33:27;;;;;;;3.00;1.30;;;8.40;99.90;;;;;;5048531;28;20120;-69
2020/12/24 00:35:55;;;;;;;4.07;1.70;;;8.50;99.90;;;;;;5046222;28;20480;-69
2020/12/24 00:38:21;;;;;;;4.97;1.92;;;8.50;99.90;;;;;;5049016;28;20049;-69
2020/12/24 00:40:48;;;;;;;4.93;1.60;;;8.50;99.90;;;;;;5045708;28;20103;-69
2020/12/24 00:43:14;;;;;;;3.45;1.40;;;8.50;99.90;;;;;;5048179;28;20053;-69
2020/12/24 00:45:40;;;;;;;2.35;1.35;;;8.50;99.90;;;;;;5047481;28;20049;-69
2020/12/24 00:48:06;;;;;;;3.92;1.60;;;8.50;99.90;;;;;;5049921;28;20063;-69
2020/12/24 00:50:33;;;;;;;3.67;1.38;;;8.50;99.90;;;;;;5049524;28;20041;-69
2020/12/24 00:52:59;;;;;;;5.05;1.60;;;8.50;99.90;;;;;;5052475;28;20059;-69
2020/12/24 00:55:25;;;;;;;4.03;1.50;;;8.50;99.90;;;;;;5051897;28;20131;-69
2020/12/24 00:57:52;;;;;;;6.47;1.90;;;8.50;99.90;;;;;;5052930;28;20059;-69
2020/12/24 01:00:18;;;;;;;5.43;1.75;;;8.50;99.90;;;;;;5049647;28;20056;-69
2020/12/24 01:02:46;;;;;;;4.50;1.50;;;8.50;99.90;;;;;;5052052;28;20049;-69
2020/12/24 01:05:12;;;;;;;4.60;1.45;;;8.50;99.90;;;;;;5051657;28;20053;-68
2020/12/24 01:07:38;;;;;;;5.88;1.60;;;8.50;99.90;;;;;;5052757;28;20128;-68
2020/12/24 01:10:06;;;;;;;3.20;1.25;;;8.50;99.90;;;;;;5050821;28;20145;-68
2020/12/24 01:12:34;;;;;;;6.15;1.30;;;8.50;99.90;;;;;;5052138;28;20048;-68
2020/12/24 01:15:04;;;;;;;3.33;1.35;;;8.50;99.90;;;;;;5048033;28;20052;-68
2020/12/24 01:17:30;;;;;;;5.85;1.33;;;8.50;99.90;;;;;;5053231;28;20076;-68
2020/12/24 01:19:56;;;;;;;2.30;1.20;;;8.50;99.90;;;;;;5045432;28;20129;-68
2020/12/24 01:22:22;;;;;;;3.67;1.40;;;8.50;99.90;;;;;;5050191;28;20463;-68
2020/12/24 01:24:49;;;;;;;7.15;1.20;;;8.40;99.90;;;;;;5049410;28;20561;-68
2020/12/24 01:27:15;;;;;;;2.88;1.20;;;8.40;99.90;;;;;;5053482;28;20052;-68
2020/12/24 01:29:41;;;;;;;2.17;1.08;;;8.40;99.90;;;;;;5048632;28;20700;-68
2020/12/24 01:32:07;;;;;;;3.03;1.15;;;8.40;99.90;;;;;;5052076;28;20067;-68
2020/12/24 01:34:34;;;;;;;2.00;0.90;;;8.40;99.90;;;;;;5050137;28;20119;-68
2020/12/24 01:37:02;;;;;;;5.55;1.58;;;8.40;99.90;;;;;;5052847;28;20087;-68
2020/12/24 01:39:29;;;;;;;4.32;1.30;;;8.30;99.90;;;;;;5049829;28;20053;-68
2020/12/24 01:41:55;;;;;;;2.88;1.08;;;8.30;99.90;;;;;;5051329;28;20072;-69
2020/12/24 01:44:23;;;;;;;4.28;1.20;;;8.30;99.90;;;;;;5049969;28;20057;-68
2020/12/24 01:46:49;;;;;;;3.10;1.20;;;8.30;99.90;;;;;;5052664;28;20544;-68
2020/12/24 01:49:17;;;;;;;4.70;1.10;;;8.20;99.90;;;;;;5049811;28;20171;-68
2020/12/24 01:51:54;;;;;;;4.75;1.30;;;8.30;99.90;;;;;;5049618;28;20410;-68
2020/12/24 01:54:23;;;;;;;2.95;1.20;;;8.20;99.90;;;;;;5050088;28;20045;-68
2020/12/24 01:56:50;;;;;;;4.25;1.20;;;8.20;99.90;;;;;;5052256;28;20136;-68
2020/12/24 01:59:21;;;;;;;3.17;1.15;;;8.30;99.90;;;;;;5049615;28;20456;-68
2020/12/24 02:01:48;;;;;;;2.40;1.02;;;8.20;99.90;;;;;;5045768;28;20431;-68
2020/12/24 02:04:15;;;;;;;5.47;1.40;;;8.20;99.90;;;;;;5045386;28;20159;-68
2020/12/24 02:06:44;;;;;;;5.72;1.65;;;8.20;99.90;;;;;;5051928;28;20051;-68
2020/12/24 02:09:11;;;;;;;4.43;1.13;;;8.20;99.90;;;;;;5050018;28;20049;-68
2020/12/24 02:11:42;;;;;;;3.22;1.45;;;8.20;99.90;;;;;;5063599;28;20056;-68
2020/12/24 02:14:08;;;;;;;2.80;1.10;;;8.20;99.90;;;;;;5043589;28;20045;-68
2020/12/24 02:16:36;;;;;;;3.40;1.20;;;8.20;99.90;;;;;;5046913;28;20136;-68
2020/12/24 02:19:06;;;;;;;4.45;1.38;;;8.20;99.90;;;;;;5051493;28;20060;-68
2020/12/24 02:21:33;;;;;;;3.15;1.00;;;8.20;99.90;;;;;;5051012;28;20408;-68
2020/12/24 02:24:00;;;;;;;4.20;1.27;;;8.20;99.90;;;;;;5050754;28;20533;-68
2020/12/24 02:26:29;;;;;;;8.02;2.00;;;8.20;99.90;;;;;;5049603;28;20136;-68
2020/12/24 02:28:56;;;;;;;5.15;1.40;;;8.20;99.90;;;;;;5050841;28;20045;-68
2020/12/24 02:31:22;;;;;;;2.70;1.30;;;8.20;99.90;;;;;;5046871;28;20045;-68
2020/12/24 02:33:48;;;;;;;4.95;1.90;;;8.20;99.90;;;;;;5049144;28;20483;-68
2020/12/24 02:36:15;;;;;;;6.30;1.65;;;8.20;99.90;;;;;;5048510;28;20045;-68
2020/12/24 02:38:42;;;;;;;5.55;1.98;;;8.20;99.90;;;;;;5051436;28;20060;-69
2020/12/24 02:41:08;;;;;;;4.53;1.35;;;8.30;99.90;;;;;;5045209;28;20052;-69
2020/12/24 02:43:36;;;;;;;4.78;1.75;;;8.30;99.90;;;;;;5048976;28;20431;-67
2020/12/24 02:46:02;;;;;;;4.53;1.90;;;8.30;99.90;;;;;;5049442;28;20091;-68
2020/12/24 02:48:29;;;;;;;3.70;1.48;;;8.30;99.90;;;;;;5051227;28;20067;-68
2020/12/24 02:50:55;;;;;;;5.82;1.55;;;8.30;99.90;;;;;;5048473;28;20055;-68
2020/12/24 02:53:22;;;;;;;4.60;1.40;;;8.40;99.90;;;;;;5050519;28;20213;-69
2020/12/24 02:55:49;;;;;;;3.85;1.65;;;8.40;99.90;;;;;;5046626;28;20041;-68
2020/12/24 02:58:15;;;;;;;4.78;1.85;;;8.40;99.90;;;;;;5050278;28;20047;-68
2020/12/24 03:00:41;;;;;;;3.38;1.65;;;8.40;99.90;;;;;;5047702;28;20051;-67
2020/12/24 03:03:08;;;;;;;5.30;1.38;;;8.40;99.90;;;;;;5049523;28;20132;-67
2020/12/24 03:05:34;;;;;;;5.32;2.40;;;8.40;99.90;;;;;;5047925;28;20044;-67
2020/12/24 03:08:00;;;;;;;5.03;1.55;;;8.40;99.90;;;;;;5050851;28;20492;-67
2020/12/24 03:10:27;;;;;;;3.92;1.90;;;8.40;99.90;;;;;;5047853;28;20045;-67
2020/12/24 03:12:54;;;;;;;6.75;1.50;;;8.40;99.90;;;;;;5049400;28;20399;-67
2020/12/24 03:15:20;;;;;;;3.53;1.20;;;8.30;99.90;;;;;;5045168;28;20041;-67
2020/12/24 03:17:47;;;;;;;5.57;2.00;;;8.40;99.90;;;;;;5050980;28;20439;-67
2020/12/24 03:20:18;;;;;;;;;;;8.40;99.90;;;;;;5046569;28;20045;-67
2020/12/24 03:22:44;;;;;;;7.28;1.45;;;8.40;99.90;;;;;;5050432;28;19924;-67
2020/12/24 03:25:11;;;;;;;4.20;1.63;;;8.40;99.90;;;;;;5047616;28;20128;-67
2020/12/24 03:27:37;;;;;;;5.93;1.50;;;8.40;99.90;;;;;;5050283;28;20411;-67
2020/12/24 03:30:06;;;;;;;5.32;1.83;;;8.40;99.90;;;;;;5048302;28;20041;-67
2020/12/24 03:32:32;;;;;;;4.50;1.90;;;8.40;99.90;;;;;;5049210;28;20536;-67
2020/12/24 03:34:59;;;;;;;5.53;1.50;;;8.40;99.90;;;;;;5042301;28;20053;-67
2020/12/24 03:37:25;;;;;;;4.68;1.70;;;8.40;99.90;;;;;;5050776;28;20056;-67
2020/12/24 03:39:54;;;;;;;8.25;1.88;;;8.40;99.90;;;;;;5047378;28;20064;-68
2020/12/24 03:42:20;;;;;;;4.32;1.90;;;8.40;99.90;;;;;;5050666;28;20051;-67
2020/12/24 03:44:46;;;;;;;5.65;1.77;;;8.40;99.90;;;;;;5046444;28;20407;-67
2020/12/24 03:47:12;;;;;;;4.60;1.60;;;8.40;99.90;;;;;;5050531;28;20080;-67
2020/12/24 03:49:39;;;;;;;6.68;1.95;;;8.40;99.90;;;;;;5047609;28;20056;-67
2020/12/24 03:52:05;;;;;;;4.35;1.73;;;8.40;99.90;;;;;;5050769;28;20045;-67
2020/12/24 03:54:31;;;;;;;6.55;2.00;;;8.40;99.90;;;;;;5047145;28;20088;-67
2020/12/24 03:56:57;;;;;;;7.68;1.83;;;8.50;99.90;;;;;;5065683;28;20492;-67
2020/12/24 03:59:24;;;;;;;6.55;2.10;;;8.50;99.90;;;;;;5047536;28;20124;-67
2020/12/24 04:01:50;;;;;;;9.27;1.80;;;8.50;99.90;;;;;;5048325;28;20407;-67
2020/12/24 04:04:17;;;;;;;5.63;1.83;;;8.50;99.90;;;;;;5047455;28;20059;-67
2020/12/24 04:06:43;;;;;;;6.25;1.55;;;8.50;99.90;;;;;;5047893;28;20131;-67
2020/12/24 04:09:09;;;;;;;3.30;1.55;;;8.50;99.90;;;;;;5048126;28;20045;-67
2020/12/24 04:11:35;;;;;;;4.88;1.92;;;8.50;99.90;;;;;;5064341;28;20060;-68
2020/12/24 04:14:01;;;;;;;4.70;2.58;;;8.40;99.90;;;;;;5048264;28;20387;-67
2020/12/24 04:16:28;;;;;;;3.53;1.98;;;8.40;99.90;;;;;;5047615;28;20088;-67
2020/12/24 04:18:54;;;;;;;3.67;2.35;;;8.30;99.90;;;;;;5050131;28;20139;-67
2020/12/24 04:21:20;;;;;;;3.67;2.08;;;8.20;99.90;;;;;;5048230;28;20049;-67
2020/12/24 04:23:47;;;;;;;2.55;1.60;;;8.20;99.90;;;;;;5044508;28;20583;-67
2020/12/24 04:26:20;;;;;;;2.67;1.40;;;8.00;99.90;;;;;;5049270;28;20470;-67
2020/12/24 04:28:47;;;;;;;2.03;1.30;;;7.90;99.90;;;;;;5053221;28;20081;-67
2020/12/24 04:31:14;;;;;;;1.63;1.13;;;7.80;99.90;;;;;;5049396;28;20044;-67
2020/12/24 04:33:41;;;;;;;1.40;0.90;;;7.60;99.90;;;;;;5052294;28;20132;-67
2020/12/24 04:36:07;;;;;;;1.80;1.00;;;7.50;99.90;;;;;;5049487;28;20084;-68
2020/12/24 04:38:34;;;;;;;1.10;0.70;;;7.30;99.90;;;;;;5053221;28;20041;-67
2020/12/24 04:41:01;;;;;;;2.20;0.95;;;7.20;99.90;;;;;;5051770;28;20055;-67
2020/12/24 04:43:28;;;;;;;1.20;0.70;;;7.00;99.90;;;;;;5052939;28;20368;-67
2020/12/24 04:45:55;;;;;;;1.23;0.80;;;6.80;99.90;;;;;;5048990;28;20048;-67
2020/12/24 04:48:22;;;;;;;1.15;0.70;;;6.60;99.90;;;;;;5053045;28;20092;-67
2020/12/24 04:50:50;;;;;;;1.25;0.75;;;6.50;99.90;;;;;;5050279;28;20045;-67
2020/12/24 04:53:18;;;;;;;1.15;0.70;;;6.40;99.90;;;;;;5053795;28;20049;-67
2020/12/24 04:55:45;;;;;;;1.10;0.70;;;6.40;99.90;;;;;;5049414;28;20136;-68
2020/12/24 04:58:12;;;;;;;1.00;0.60;;;6.30;99.90;;;;;;5052832;28;20041;-67
2020/12/24 05:00:39;;;;;;;1.23;0.60;;;6.20;99.90;;;;;;5050943;28;20057;-67
2020/12/24 05:03:08;;;;;;;1.30;0.70;;;6.10;99.90;;;;;;5053632;28;20174;-67
2020/12/24 05:05:36;;;;;;;0.90;0.57;;;6.10;99.90;;;;;;5049949;28;20095;-67
2020/12/24 05:08:04;;;;;;;1.00;0.60;;;6.00;99.90;;;;;;5053505;28;20051;-67
2020/12/24 05:10:31;;;;;;;1.15;0.60;;;5.90;99.90;;;;;;5051426;28;20498;-68
2020/12/24 05:12:58;;;;;;;0.98;0.60;;;5.90;99.90;;;;;;5053208;28;20091;-67
2020/12/24 05:15:30;;;;;;;0.90;0.60;;;5.80;99.90;;;;;;5043602;28;20045;-67
2020/12/24 05:18:13;;;;;;;0.90;0.60;;;5.80;99.90;;;;;;5052848;28;20045;-67
2020/12/24 05:20:40;;;;;;;0.90;0.55;;;5.80;99.90;;;;;;5043751;28;20411;-67
2020/12/24 05:23:16;;;;;;;2.70;0.90;;;5.70;99.90;;;;;;5052875;28;20052;-67
2020/12/24 05:25:44;;;;;;;1.73;0.63;;;5.70;99.90;;;;;;5045923;28;20527;-67
2020/12/24 05:28:21;;;;;;;1.23;0.70;;;5.70;99.90;;;;;;5051468;28;20049;-67
2020/12/24 05:30:48;;;;;;;1.30;0.68;;;5.60;99.90;;;;;;5044101;28;20307;-67
2020/12/24 05:33:35;;;;;;;2.20;0.93;;;5.60;99.90;;;;;;5052518;28;20048;-67
2020/12/24 05:36:18;;;;;;;0.93;0.75;;;5.50;99.90;;;;;;5045559;28;20045;-67
2020/12/24 05:38:46;;;;;;;2.30;0.73;;;5.50;99.90;;;;;;5052546;28;20128;-67
2020/12/24 05:41:33;;;;;;;1.10;0.73;;;5.50;99.90;;;;;;5049480;28;20456;-68
2020/12/24 05:44:05;;;;;;;1.02;0.77;;;5.40;99.90;;;;;;5047742;28;20052;-69
2020/12/24 05:46:52;;;;;;;1.00;0.70;;;5.30;99.90;;;;;;5050702;28;20045;-69
2020/12/24 05:49:21;;;;;;;1.20;0.85;;;5.30;99.90;;;;;;5050101;28;20373;-69
2020/12/24 05:51:58;;;;;;;1.50;0.80;;;5.30;99.90;;;;;;5052349;28;20056;-69
2020/12/24 05:54:27;;;;;;;1.10;0.80;;;5.20;99.90;;;;;;5049733;28;20051;-69
2020/12/24 05:56:54;;;;;;;;;;;5.20;99.90;;;;;;5052660;28;20400;-68
2020/12/24 05:59:24;;;;;;;1.02;0.85;;;5.20;99.90;;;;;;5049288;28;19920;-68
2020/12/24 06:01:59;;;;;;;1.00;0.75;;;5.20;99.90;;;;;;5052382;28;20059;-68
2020/12/24 06:04:51;;;;;;;1.02;0.85;;;5.20;99.90;;;;;;5046846;28;20149;-67
2020/12/24 06:07:21;;;;;;;1.17;0.77;;;5.10;99.90;;;;;;5043061;28;20057;-69
2020/12/24 06:09:49;;;;;;;1.02;0.70;;;5.10;99.90;;;;;;5045928;28;20114;-69
2020/12/24 06:12:20;;;;;;;1.40;0.80;;;5.10;99.90;;;;;;5049765;28;20148;-68
2020/12/24 06:14:57;;;;;;;1.00;0.70;;;5.10;99.90;;;;;;5045958;28;20318;-69
2020/12/24 06:17:25;;;;;;;1.00;0.70;;;5.10;99.90;;;;;;5043871;28;20045;-68
2020/12/24 06:19:52;;;;;;;0.90;0.60;;;5.10;99.90;;;;;;5049202;28;20047;-69
2020/12/24 06:22:19;;;;;;;1.08;0.77;;;5.10;99.90;;;;;;5051865;28;20053;-69
2020/12/24 06:24:56;;;;;;;1.00;0.70;;;5.10;99.90;;;;;;5045813;28;20457;-69
2020/12/24 06:27:32;;;;;;;1.27;0.73;;;5.20;99.90;;;;;;5046157;28;20132;-69
2020/12/24 06:30:03;;;;;;;1.02;0.60;;;5.20;99.90;;;;;;5047993;28;20090;-69
2020/12/24 06:32:34;;;;;;;1.52;0.82;;;5.20;99.90;;;;;;5052138;28;20140;-69
2020/12/24 06:35:01;;;;;;;1.00;0.60;;;5.20;99.90;;;;;;5048600;28;20555;-69
2020/12/24 06:37:27;;;;;;;1.17;0.70;;;5.20;99.90;;;;;;5051091;28;20045;-69
2020/12/24 06:39:54;;;;;;;1.00;0.70;;;5.20;99.90;;;;;;5047279;28;20054;-69
2020/12/24 06:42:43;;;;;;;1.67;0.90;;;5.20;99.90;;;;;;5049508;28;20045;-69
2020/12/24 06:45:39;;;;;;;0.90;0.60;;;5.20;99.90;;;;;;5047691;28;20557;-69
2020/12/24 06:48:22;;;;;;;1.20;0.70;;;5.20;99.90;;;;;;5043616;28;20430;-69
2020/12/24 06:50:48;;;;;;;1.10;0.70;;;5.20;99.90;;;;;;5046778;28;20052;-69
2020/12/24 06:53:23;;;;;;;1.00;0.70;;;5.20;99.90;;;;;;5050421;28;20041;-69
2020/12/24 06:56:14;;;;;;;1.00;0.70;;;5.20;99.90;;;;;;5045969;28;20480;-69
2020/12/24 06:58:41;;;;;;;1.48;0.60;;;5.20;99.90;;;;;;5038467;28;20052;-69
2020/12/24 07:01:19;;;;;;;1.30;0.80;;;5.20;99.90;;;;;;5045505;28;20404;-69
2020/12/24 07:03:49;;;;;;;1.20;0.75;;;5.20;99.90;;;;;;5045595;28;20223;-69
2020/12/24 07:06:45;;;;;;;1.10;0.73;;;5.20;99.90;;;;;;5045528;28;20128;-69
2020/12/24 07:09:20;;;;;;;0.93;0.63;;;5.30;99.90;;;;;;5047459;28;20156;-69
2020/12/24 07:11:49;;;;;;;1.20;0.80;;;5.30;99.90;;;;;;5049466;28;20071;-69
2020/12/24 07:14:36;;;;;;;1.30;0.70;;;5.30;99.90;;;;;;5045233;28;20202;-69
2020/12/24 07:17:19;;;;;;;0.88;0.52;;;5.30;99.90;;;;;;5030781;28;20064;-68
2020/12/24 07:19:49;;;;;;;1.10;0.70;;;5.30;99.90;;;;;;5039535;28;20128;-69
2020/12/24 07:22:17;;;;;;;1.08;0.75;;;5.30;99.90;;;;;;5038492;28;20167;-69
2020/12/24 07:24:55;;;;;;;1.15;0.68;;;5.30;99.90;;;;;;5045050;28;20049;-69
2020/12/24 07:27:22;;;;;;;1.30;0.88;;;5.30;99.90;;;;;;5038852;28;20053;-69
2020/12/24 07:29:48;;;;;;;1.10;0.80;;;5.30;99.90;;;;;;5039122;28;20084;-69
2020/12/24 07:32:15;;;;;;;1.38;0.80;;;5.30;99.90;;;;;;5048628;28;20045;-69
2020/12/24 07:34:41;;;;;;;1.30;0.90;;;5.30;99.90;;;;;;5041651;28;20041;-69
2020/12/24 07:37:08;;;;;;;1.38;0.80;;;5.30;99.90;;;;;;5037556;28;20041;-69
2020/12/24 07:39:34;;;;;;;1.20;0.80;;;5.30;99.90;;;;;;5035759;28;20515;-69
2020/12/24 07:42:01;;;;;;;1.33;0.90;;;5.30;99.90;;;;;;5045097;28;20132;-68
2020/12/24 07:44:27;;;;;;;1.45;0.80;;;5.30;99.90;;;;;;5037696;28;20098;-69
2020/12/24 07:47:01;;;;;;;1.38;0.98;;;5.30;99.90;;;;;;5045143;28;20052;-68
2020/12/24 07:49:28;;;;;;;1.20;0.82;;;5.30;99.90;;;;;;5043928;28;20052;-69
2020/12/24 07:51:56;;;;;;;1.30;0.70;;;5.40;99.90;;;;;;5041901;28;20136;-69
2020/12/24 07:54:25;;;;;;;1.30;0.80;;;5.40;99.90;;;;;;5039734;28;20052;-69
2020/12/24 07:56:52;;;;;;;1.85;0.73;;;5.40;99.90;;;;;;5039465;28;20094;-68
2020/12/24 07:59:19;;;;;;;1.15;0.85;;;5.40;99.90;;;;;;5045577;28;20056;-69
2020/12/24 08:01:45;;;;;;;1.42;0.90;;;5.40;99.90;;;;;;5049754;28;20045;-68
2020/12/24 08:04:12;;;;;;;1.73;1.10;;;5.40;99.90;;;;;;5044703;28;20117;-68
2020/12/24 08:06:38;;;;;;;1.50;1.00;;;5.40;99.90;;;;;;5047822;28;20168;-69
2020/12/24 08:09:15;;;;;;;1.50;1.00;;;5.40;99.90;;;;;;5042408;28;20049;-69
2020/12/24 08:11:50;;;;;;;1.75;1.10;;;5.40;99.90;;;;;;5048506;28;20073;-69
2020/12/24 08:14:21;;;;;;;1.30;0.95;;;5.40;99.90;;;;;;5036291;28;20037;-69
2020/12/24 08:16:49;;;;;;;2.30;1.27;;;5.50;99.90;;;;;;5048093;28;20041;-69
2020/12/24 08:19:41;;;;;;;2.45;1.10;;;5.50;99.90;;;;;;5050915;28;20415;-69
2020/12/24 08:22:26;;;;;;;1.60;1.15;;;5.50;99.90;;;;;;5052398;28;20049;-68
2020/12/24 08:24:54;;;;;;;1.52;1.00;;;5.60;99.90;;;;;;5042746;28;20061;-69
2020/12/24 08:27:21;;;;;;;1.90;1.30;;;5.60;99.90;;;;;;5052060;28;20068;-69
2020/12/24 08:29:48;;;;;;;1.70;1.10;;;5.70;99.90;;;;;;5048793;28;20464;-69
2020/12/24 08:32:15;;;;;;;1.95;1.20;;;5.70;99.90;;;;;;5054442;28;20472;-69
2020/12/24 08:34:42;;;;;;;1.80;0.90;;;5.70;99.90;;;;;;5044306;28;20473;-69
2020/12/24 08:37:09;;;;;;;2.22;1.30;;;5.70;99.90;;;;;;5052221;28;20049;-69
2020/12/24 08:39:35;;;;;;;1.73;1.10;;;5.80;99.90;;;;;;5048889;28;20052;-69
2020/12/24 08:42:03;;;;;;;1.77;1.10;;;5.80;99.90;;;;;;5056419;28;20041;-69
2020/12/24 08:44:30;;;;;;;2.20;1.10;;;5.80;99.90;;;;;;5049904;28;20053;-69
2020/12/24 08:47:10;;;;;;;1.75;1.17;;;5.80;99.90;;;;;;5047903;28;20403;-68
2020/12/24 08:49:47;;;;;;;1.65;1.20;;;5.70;99.90;;;;;;5048403;28;20475;-69
2020/12/24 08:52:17;;;;;;;1.85;1.20;;;5.70;99.90;;;;;;5052297;28;20045;-69
2020/12/24 08:54:57;;;;;;;1.38;1.00;;;5.70;99.90;;;;;;5051940;28;20047;-69
2020/12/24 08:57:23;;;;;;;1.55;1.10;;;5.80;99.90;;;;;;5051386;28;20039;-69
2020/12/24 08:59:56;;;;;;;1.70;1.20;;;5.70;99.90;;;;;;5049152;28;20049;-69
2020/12/24 09:02:31;;;;;;;1.73;1.00;;;5.70;99.90;;;;;;5046876;28;20045;-69
2020/12/24 09:04:59;;;;;;;1.42;0.98;;;5.80;99.90;;;;;;5049174;28;20422;-68
2020/12/24 09:07:42;;;;;;;2.50;1.27;;;5.80;99.90;;;;;;5052710;28;20459;-68
2020/12/24 09:10:13;;;;;;;2.08;1.20;;;5.70;99.90;;;;;;5049681;28;20348;-68
2020/12/24 09:12:42;;;;;;;1.92;1.20;;;5.70;99.90;;;;;;5053472;28;20407;-67
2020/12/24 09:15:10;;;;;;;;;;;5.80;99.90;;;;;;5050064;28;20072;-68
2020/12/24 09:17:47;;;;;;;1.92;1.35;;;5.80;99.90;;;;;;5050212;28;19920;-69
2020/12/24 09:20:14;;;;;;;2.88;1.13;;;5.70;99.90;;;;;;5048572;28;20047;-69
2020/12/24 09:22:55;;;;;;;1.60;0.93;;;5.80;99.90;;;;;;5052571;28;20456;-68
2020/12/24 09:25:30;;;;;;;2.95;1.10;;;5.80;99.90;;;;;;5049259;28;20049;-68
2020/12/24 09:27:56;;;;;;;1.73;1.17;;;5.80;99.90;;;;;;5052048;28;20052;-69
2020/12/24 09:30:22;;;;;;;2.17;1.60;;;5.90;99.90;;;;;;5048570;28;20127;-69
2020/12/24 09:32:54;;;;;;;1.98;1.10;;;5.90;99.90;;;;;;5051658;28;20415;-68
2020/12/24 09:35:26;;;;;;;2.17;1.45;;;5.90;99.90;;;;;;5046651;28;20067;-68
2020/12/24 09:37:53;;;;;;;1.50;1.10;;;5.90;99.90;;;;;;5048899;28;20051;-68
2020/12/24 09:40:20;;;;;;;2.30;1.33;;;5.90;99.90;;;;;;5048188;28;20052;-69
2020/12/24 09:42:46;;;;;;;1.77;1.10;;;5.90;99.90;;;;;;5052454;28;20121;-68
2020/12/24 09:45:13;;;;;;;1.70;1.30;;;5.90;99.90;;;;;;5048739;28;20063;-67
2020/12/24 09:47:41;;;;;;;2.40;1.20;;;5.90;99.90;;;;;;5050899;28;20045;-68
2020/12/24 09:50:09;;;;;;;2.10;1.48;;;6.00;99.90;;;;;;5048523;28;20041;-67
2020/12/24 09:52:35;;;;;;;1.55;1.00;;;6.00;99.90;;;;;;5051805;28;20502;-67
2020/12/24 09:55:02;;;;;;;2.20;1.48;;;6.00;99.90;;;;;;5049991;28;20048;-68
2020/12/24 09:57:29;;;;;;;1.80;1.13;;;6.00;99.90;;;;;;5051447;28;20177;-68
2020/12/24 09:59:56;;;;;;;2.22;1.50;;;6.00;99.90;;;;;;5048454;28;20041;-68
2020/12/24 10:02:23;;;;;;;2.58;1.30;;;6.00;99.90;;;;;;5053175;28;20502;-68
2020/12/24 10:04:49;;;;;;;1.90;1.40;;;6.00;99.90;;;;;;5049771;28;20435;-68
2020/12/24 10:07:16;;;;;;;2.28;1.20;;;6.00;99.90;;;;;;5051107;28;20063;-68
2020/12/24 10:09:42;;;;;;;1.40;0.98;;;6.10;99.90;;;;;;5048161;28;20395;-68
2020/12/24 10:12:08;;;;;;;1.88;1.20;;;6.10;99.90;;;;;;5050043;28;20048;-68
2020/12/24 10:14:34;;;;;;;2.13;1.30;;;6.10;99.90;;;;;;5042674;28;20052;-68
2020/12/24 10:17:05;;;;;;;2.03;1.20;;;6.10;99.90;;;;;;5040192;28;20144;-68
2020/12/24 10:19:31;;;;;;;1.73;0.98;;;6.10;99.90;;;;;;5047076;28;20063;-68
2020/12/24 10:21:57;;;;;;;2.72;1.20;;;6.10;99.90;;;;;;5041325;28;20140;-68
2020/12/24 10:24:24;;;;;;;2.75;1.30;;;6.10;99.90;;;;;;5037180;28;20152;-68
2020/12/24 10:26:54;;;;;;;1.73;1.35;;;6.20;99.90;;;;;;5041181;28;20063;-68
2020/12/24 10:29:21;;;;;;;2.25;1.10;;;6.20;99.90;;;;;;5040721;28;21728;-68
2020/12/24 10:31:47;;;;;;;2.10;1.52;;;6.20;99.90;;;;;;5050387;28;20470;-68
2020/12/24 10:34:14;;;;;;;2.53;1.27;;;6.20;99.90;;;;;;5035167;28;21045;-68
2020/12/24 10:36:40;;;;;;;4.90;1.25;;;6.30;99.90;;;;;;5047282;28;20431;-68
2020/12/24 10:39:09;;;;;;;3.05;1.77;;;6.30;99.90;;;;;;5051604;28;20059;-68
2020/12/24 10:41:38;;;;;;;3.25;1.25;;;6.30;99.90;;;;;;5049116;28;20450;-68
2020/12/24 10:44:05;;;;;;;2.15;1.30;;;6.30;99.90;;;;;;5050100;28;20041;-68
2020/12/24 10:46:31;;;;;;;4.10;1.38;;;6.40;99.90;;;;;;5042614;28;20404;-68
2020/12/24 10:48:57;;;;;;;1.80;0.88;;;6.40;99.90;;;;;;5043966;28;20076;-68
2020/12/24 10:51:24;;;;;;;2.47;1.20;;;6.40;99.90;;;;;;5049291;28;20124;-68
2020/12/24 10:53:50;;;;;;;4.32;1.13;;;6.50;99.90;;;;;;5051935;28;20045;-68
2020/12/24 10:56:17;;;;;;;3.92;1.20;;;6.50;99.90;;;;;;5048859;28;20051;-68
2020/12/24 10:58:45;;;;;;;3.28;1.50;;;6.50;99.90;;;;;;5052436;28;20051;-68
2020/12/24 11:01:12;;;;;;;3.60;1.00;;;6.60;99.90;;;;;;5045241;28;20510;-68
2020/12/24 11:03:39;;;;;;;3.25;1.20;;;6.60;99.90;;;;;;5047888;28;20564;-68
2020/12/24 11:06:15;;;;;;;4.25;1.75;;;6.60;99.90;;;;;;5040167;28;20199;-67
2020/12/24 11:08:41;;;;;;;3.95;1.10;;;6.60;99.90;;;;;;5046434;28;20056;-67
2020/12/24 11:11:07;;;;;;;4.90;1.77;;;6.60;99.90;;;;;;5047452;28;20093;-67
2020/12/24 11:13:33;;;;;;;6.78;1.33;;;6.70;99.90;;;;;;5050918;28;20485;-67
2020/12/24 11:16:00;;;;;;;1.88;1.05;;;6.70;99.90;;;;;;5046159;28;20049;-67
2020/12/24 11:18:26;;;;;;;2.83;1.55;;;6.70;99.90;;;;;;5051536;28;20041;-67
2020/12/24 11:20:55;;;;;;;7.05;1.80;;;6.70;99.90;;;;;;5042278;28;20063;-67
2020/12/24 11:23:22;;;;;;;2.83;1.20;;;6.80;99.90;;;;;;5050665;28;20235;-67
2020/12/24 11:25:48;;;;;;;2.15;1.25;;;6.80;99.90;;;;;;5051951;28;20391;-67
2020/12/24 11:28:15;;;;;;;9.63;1.60;;;6.80;99.90;;;;;;5050800;28;20091;-67
2020/12/24 11:30:41;;;;;;;3.40;1.17;;;6.80;99.90;;;;;;5048766;28;20373;-67
2020/12/24 11:33:07;;;;;;;2.28;1.30;;;6.90;99.90;;;;;;5050747;28;20045;-67
2020/12/24 11:35:34;;;;;;;5.55;1.17;;;6.90;99.90;;;;;;5047568;28;20043;-67
2020/12/24 11:38:00;;;;;;;4.13;1.38;;;7.00;99.90;;;;;;5052473;28;20413;-67
2020/12/24 11:40:26;;;;;;;4.40;1.42;;;7.00;99.90;;;;;;5047443;28;20048;-67
2020/12/24 11:42:52;;;;;;;2.25;1.00;;;7.00;99.90;;;;;;5049914;28;20053;-67
2020/12/24 11:45:20;;;;;;;2.42;1.00;;;7.00;99.90;;;;;;5046380;28;20053;-67
2020/12/24 11:47:46;;;;;;;4.32;1.00;;;7.00;99.90;;;;;;5066711;28;20403;-67
2020/12/24 11:50:12;;;;;;;6.30;1.10;;;7.00;99.90;;;;;;5045255;28;20079;-67
2020/12/24 11:52:39;;;;;;;3.25;0.90;;;7.00;99.90;;;;;;5050929;28;20048;-67
2020/12/24 11:55:06;;;;;;;5.82;1.27;;;7.10;99.90;;;;;;5044839;28;20080;-67
2020/12/24 11:57:36;;;;;;;2.22;0.60;;;7.10;99.90;;;;;;5051141;28;20045;-67
2020/12/24 12:00:05;;;;;;;2.97;1.00;;;7.00;99.90;;;;;;5053241;28;20049;-67
2020/12/24 12:02:35;;;;;;;2.58;1.05;;;7.10;99.90;;;;;;5051118;28;20056;-67
2020/12/24 12:05:02;;;;;;;5.25;0.70;;;7.10;99.90;;;;;;5045774;28;20491;-67
2020/12/24 12:07:29;;;;;;;6.68;1.08;;;7.10;99.90;;;;;;5051109;28;20232;-67
2020/12/24 12:09:55;;;;;;;4.70;1.27;;;7.10;99.90;;;;;;5045498;28;20083;-66
2020/12/24 12:12:21;;;;;;;2.78;0.80;;;7.10;99.90;;;;;;5051016;28;20053;-67
2020/12/24 12:14:47;;;;;;;3.38;0.77;;;7.10;99.90;;;;;;5047917;28;20049;-67
2020/12/24 12:17:15;;;;;;;5.18;0.80;;;7.10;99.90;;;;;;5051063;28;20461;-66
2020/12/24 12:19:44;;;;;;;5.22;1.00;;;7.10;99.90;;;;;;5045960;28;20144;-67
2020/12/24 12:22:11;;;;;;;4.47;0.80;;;7.10;99.90;;;;;;5051065;28;20132;-67
2020/12/24 12:24:38;;;;;;;4.53;1.17;;;7.20;99.90;;;;;;5046429;28;20766;-67
2020/12/24 12:27:06;;;;;;;1.85;0.70;;;7.20;99.90;;;;;;5049089;28;20136;-66
2020/12/24 12:29:33;;;;;;;3.40;0.75;;;7.20;99.90;;;;;;5048447;28;20120;-67
2020/12/24 12:31:59;;;;;;;1.65;0.90;;;7.20;99.90;;;;;;5050483;28;20493;-67
2020/12/24 12:34:26;;;;;;;3.22;1.00;;;7.20;99.90;;;;;;5047031;28;20157;-68
2020/12/24 12:36:55;;;;;;;1.63;0.70;;;7.20;99.90;;;;;;5045734;28;20544;-67
2020/12/24 12:39:22;;;;;;;3.22;0.80;;;7.20;99.90;;;;;;5041158;28;20049;-67
2020/12/24 12:41:51;;;;;;;1.55;0.88;;;7.20;99.90;;;;;;5044773;28;20215;-67
2020/12/24 12:44:18;;;;;;;3.35;1.10;;;7.20;99.90;;;;;;5039487;28;20049;-67
2020/12/24 12:46:44;;;;;;;2.25;0.73;;;7.20;99.90;;;;;;5052547;28;20414;-66
2020/12/24 12:49:10;;;;;;;3.65;0.80;;;7.30;99.90;;;;;;5051818;28;20041;-67
2020/12/24 12:51:37;;;;;;;2.80;0.80;;;7.30;99.90;;;;;;5047910;28;20072;-67
2020/12/24 12:54:03;;;;;;;3.50;1.33;;;7.30;99.90;;;;;;5052130;28;20041;-67
2020/12/24 12:56:32;;;;;;;;;;;7.30;99.90;;;;;;5048181;28;20136;-66
2020/12/24 12:59:00;;;;;;;1.85;0.75;;;7.30;99.90;;;;;;5052234;28;19926;-67
2020/12/24 13:01:27;;;;;;;3.90;0.85;;;7.30;99.90;;;;;;5047129;28;20040;-67
2020/12/24 13:04:10;;;;;;;2.28;0.75;;;7.30;99.90;;;;;;5044560;28;20083;-67
2020/12/24 13:06:38;;;;;;;2.28;1.38;;;7.30;99.90;;;;;;5048806;28;20478;-67